createdAt,value
2019-03-27T00:00:13.410Z,6.20
2019-03-27T00:02:41.815Z,6.20
2019-03-27T00:05:10.402Z,6.73
2019-03-27T00:07:38.827Z,6.60
2019-03-27T00:10:09.030Z,6.17
2019-03-27T00:12:37.989Z,7.03
2019-03-27T00:15:13.195Z,5.90
2019-03-27T00:17:40.993Z,5.90
2019-03-27T00:20:10.432Z,6.70
2019-03-27T00:22:38.884Z,6.50
2019-03-27T00:25:08.942Z,6.70
2019-03-27T00:27:37.354Z,6.77
2019-03-27T00:30:08.018Z,5.97
2019-03-27T00:32:36.424Z,7.00
2019-03-27T00:35:09.710Z,6.30
2019-03-27T00:37:38.113Z,6.87
2019-03-27T00:40:07.362Z,6.43
2019-03-27T00:42:35.802Z,6.17
2019-03-27T00:45:06.842Z,6.47
2019-03-27T00:47:35.278Z,6.60
2019-03-27T00:50:05.422Z,6.90
2019-03-27T00:52:33.817Z,7.03
2019-03-27T00:55:02.237Z,6.50
2019-03-27T00:57:30.661Z,7.33
2019-03-27T00:59:59.058Z,6.80
2019-03-27T01:02:27.469Z,7.07
2019-03-27T01:04:55.891Z,7.30
2019-03-27T01:07:24.466Z,7.17
2019-03-27T01:09:52.876Z,6.97
2019-03-27T01:12:21.293Z,7.07
2019-03-27T01:14:49.703Z,7.17
2019-03-27T01:17:18.101Z,7.03
2019-03-27T01:19:46.604Z,6.77
2019-03-27T01:22:15.010Z,7.10
2019-03-27T01:24:43.434Z,7.03
2019-03-27T01:27:11.830Z,7.57
2019-03-27T01:29:40.237Z,8.20
2019-03-27T01:32:08.874Z,8.70
2019-03-27T01:34:37.286Z,8.80
2019-03-27T01:37:05.682Z,8.00
2019-03-27T01:39:34.130Z,7.60
2019-03-27T01:42:02.528Z,8.17
2019-03-27T01:44:30.962Z,8.17
2019-03-27T01:46:59.429Z,8.13
2019-03-27T01:49:27.850Z,8.40
2019-03-27T01:51:56.309Z,8.07
2019-03-27T01:54:24.774Z,8.13
2019-03-27T01:56:53.170Z,7.63
2019-03-27T01:59:21.623Z,7.93
2019-03-27T02:01:50.229Z,8.33
2019-03-27T02:04:18.674Z,8.23
2019-03-27T02:06:47.075Z,8.57
2019-03-27T02:09:15.469Z,7.90
2019-03-27T02:11:43.902Z,8.63
2019-03-27T02:14:12.289Z,8.93
2019-03-27T02:16:40.704Z,8.40
2019-03-27T02:19:09.127Z,8.67
2019-03-27T02:21:37.540Z,8.37
2019-03-27T02:24:05.943Z,9.20
2019-03-27T02:26:34.367Z,9.30
2019-03-27T02:29:02.807Z,9.27
2019-03-27T02:31:31.203Z,9.83
2019-03-27T02:33:59.593Z,10.33
2019-03-27T02:36:28.299Z,10.73
2019-03-27T02:38:56.685Z,10.13
2019-03-27T02:41:25.086Z,10.67
2019-03-27T02:43:54.059Z,10.20
2019-03-27T02:46:25.259Z,11.23
2019-03-27T02:48:52.562Z,10.23
2019-03-27T02:51:20.995Z,10.97
2019-03-27T02:53:49.378Z,10.37
2019-03-27T02:56:17.774Z,9.20
2019-03-27T02:58:46.189Z,9.53
2019-03-27T03:01:14.640Z,10.97
2019-03-27T03:03:43.043Z,10.23
2019-03-27T03:06:11.444Z,10.83
2019-03-27T03:08:39.872Z,10.20
2019-03-27T03:11:08.268Z,10.23
2019-03-27T03:13:36.678Z,10.30
2019-03-27T03:16:05.254Z,10.50
2019-03-27T03:18:33.674Z,10.40
2019-03-27T03:21:02.072Z,10.70
2019-03-27T03:23:30.489Z,11.30
2019-03-27T03:25:58.890Z,11.30
2019-03-27T03:28:27.298Z,11.30
2019-03-27T03:30:55.729Z,11.60
2019-03-27T03:33:24.293Z,10.43
2019-03-27T03:35:52.732Z,11.53
2019-03-27T03:38:21.164Z,11.77
2019-03-27T03:40:49.591Z,10.93
2019-03-27T03:43:18.014Z,11.93
2019-03-27T03:45:46.417Z,11.13
2019-03-27T03:48:14.829Z,11.07
2019-03-27T03:50:43.770Z,10.50
2019-03-27T03:53:13.827Z,11.00
2019-03-27T03:55:43.080Z,11.60
2019-03-27T03:58:13.713Z,12.40
2019-03-27T04:00:42.507Z,11.33
2019-03-27T04:03:12.418Z,12.80
2019-03-27T04:05:40.830Z,12.03
2019-03-27T04:08:09.225Z,12.07
2019-03-27T04:10:37.655Z,12.93
2019-03-27T04:13:06.117Z,12.70
2019-03-27T04:15:34.686Z,12.17
2019-03-27T04:18:03.204Z,12.03
2019-03-27T04:20:31.605Z,12.33
2019-03-27T04:23:00.122Z,11.93
2019-03-27T04:25:28.510Z,12.73
2019-03-27T04:27:56.908Z,12.37
2019-03-27T04:30:25.325Z,11.80
2019-03-27T04:32:53.723Z,12.27
2019-03-27T04:35:22.116Z,12.83
2019-03-27T04:37:50.549Z,11.57
2019-03-27T04:40:18.944Z,12.33
2019-03-27T04:42:47.337Z,12.90
2019-03-27T04:45:17.350Z,11.67
2019-03-27T04:47:45.753Z,12.40
2019-03-27T04:50:14.149Z,12.43
2019-03-27T04:52:42.584Z,12.03
2019-03-27T04:55:11.144Z,12.37
2019-03-27T04:57:39.543Z,12.77
2019-03-27T05:00:08.512Z,12.67
2019-03-27T05:02:36.931Z,12.83
2019-03-27T05:05:07.242Z,12.83
2019-03-27T05:07:35.637Z,12.77
2019-03-27T05:10:05.316Z,12.30
2019-03-27T05:12:33.717Z,12.17
2019-03-27T05:15:02.154Z,12.90
2019-03-27T05:17:30.577Z,13.37
2019-03-27T05:19:58.986Z,13.20
2019-03-27T05:22:27.392Z,13.63
2019-03-27T05:24:55.975Z,12.93
2019-03-27T05:27:24.365Z,12.77
2019-03-27T05:29:52.761Z,12.67
2019-03-27T05:32:21.185Z,13.40
2019-03-27T05:34:49.580Z,12.90
2019-03-27T05:37:17.976Z,13.33
2019-03-27T05:39:46.401Z,13.93
2019-03-27T05:42:14.834Z,13.53
2019-03-27T05:44:43.232Z,13.40
2019-03-27T05:47:11.657Z,13.87
2019-03-27T05:49:40.059Z,13.83
2019-03-27T05:52:08.447Z,13.57
2019-03-27T05:54:36.868Z,14.50
2019-03-27T05:57:05.299Z,14.13
2019-03-27T05:59:33.696Z,13.53
2019-03-27T06:02:02.432Z,14.33
2019-03-27T06:04:30.819Z,14.00
2019-03-27T06:06:59.226Z,13.97
2019-03-27T06:09:27.646Z,13.90
2019-03-27T06:11:56.091Z,14.43
2019-03-27T06:14:24.494Z,14.17
2019-03-27T06:16:52.928Z,14.63
2019-03-27T06:19:21.326Z,14.57
2019-03-27T06:21:49.729Z,14.00
2019-03-27T06:24:18.211Z,14.43
2019-03-27T06:26:46.643Z,14.63
2019-03-27T06:29:15.933Z,14.17
2019-03-27T06:31:44.520Z,14.60
2019-03-27T06:34:12.951Z,15.10
2019-03-27T06:36:41.349Z,14.70
2019-03-27T06:39:09.805Z,14.20
2019-03-27T06:41:38.236Z,15.33
2019-03-27T06:44:07.554Z,15.27
2019-03-27T06:46:35.952Z,15.33
2019-03-27T06:49:04.409Z,15.27
2019-03-27T06:54:01.700Z,14.93
2019-03-27T06:56:30.120Z,15.55
2019-03-27T06:58:58.516Z,15.33
2019-03-27T07:01:26.918Z,14.43
2019-03-27T07:03:55.352Z,15.47
2019-03-27T07:06:23.752Z,14.73
2019-03-27T07:08:52.314Z,15.27
2019-03-27T07:11:20.740Z,15.20
2019-03-27T07:13:49.144Z,14.03
2019-03-27T07:16:17.546Z,14.87
2019-03-27T07:18:45.979Z,16.07
2019-03-27T07:21:14.373Z,15.63
2019-03-27T07:23:42.761Z,15.37
2019-03-27T07:26:11.213Z,16.30
2019-03-27T07:28:39.580Z,16.23
2019-03-27T07:31:07.997Z,16.20
2019-03-27T07:33:36.389Z,17.00
2019-03-27T07:36:04.810Z,16.80
2019-03-27T07:38:33.212Z,16.60
2019-03-27T07:41:01.609Z,15.90
2019-03-27T07:43:30.053Z,16.47
2019-03-27T07:45:58.441Z,16.57
2019-03-27T07:48:26.840Z,16.00
2019-03-27T07:50:55.349Z,16.47
2019-03-27T07:53:23.749Z,16.60
2019-03-27T07:55:52.140Z,16.93
2019-03-27T07:58:20.563Z,16.10
2019-03-27T08:00:48.972Z,17.03
2019-03-27T08:03:17.557Z,15.77
2019-03-27T08:05:45.948Z,15.90
2019-03-27T08:08:14.345Z,16.63
2019-03-27T08:10:42.832Z,16.50
2019-03-27T08:13:11.208Z,16.37
2019-03-27T08:15:40.921Z,16.03
2019-03-27T08:18:09.510Z,15.93
2019-03-27T08:20:37.906Z,16.30
2019-03-27T08:23:06.373Z,16.67
2019-03-27T08:25:34.768Z,16.47
2019-03-27T08:28:03.172Z,16.87
2019-03-27T08:30:31.597Z,17.83
2019-03-27T08:32:59.990Z,17.50
2019-03-27T08:35:28.472Z,17.10
2019-03-27T08:37:56.892Z,17.57
2019-03-27T08:40:25.332Z,17.13
2019-03-27T08:42:53.739Z,17.87
2019-03-27T08:45:22.244Z,18.50
2019-03-27T08:47:50.669Z,19.30
2019-03-27T08:50:19.616Z,18.92
2019-03-27T08:52:48.049Z,20.13
2019-03-27T08:55:16.741Z,19.97
2019-03-27T08:57:45.560Z,21.10
2019-03-27T09:00:14.892Z,21.07
2019-03-27T09:02:43.305Z,22.00
2019-03-27T09:05:11.865Z,23.43
2019-03-27T09:07:40.310Z,24.80
2019-03-27T09:10:08.944Z,24.60
2019-03-27T09:12:37.396Z,25.37
2019-03-27T09:15:08.447Z,23.70
2019-03-27T09:17:36.863Z,26.90
2019-03-27T09:20:07.114Z,27.63
2019-03-27T09:22:35.536Z,26.67
2019-03-27T09:25:08.096Z,25.87
2019-03-27T09:27:36.494Z,27.83
2019-03-27T09:30:08.018Z,29.00
2019-03-27T09:32:36.440Z,30.90
2019-03-27T09:35:05.775Z,31.53
2019-03-27T09:37:34.198Z,30.20
2019-03-27T09:40:02.917Z,31.77
2019-03-27T09:42:31.322Z,31.53
2019-03-27T09:44:59.728Z,30.77
2019-03-27T09:47:28.156Z,34.63
2019-03-27T09:49:56.560Z,35.77
2019-03-27T09:52:24.966Z,35.30
2019-03-27T09:54:53.460Z,35.83
2019-03-27T09:57:21.903Z,34.70
2019-03-27T09:59:50.307Z,33.53
2019-03-27T10:02:18.704Z,34.67
2019-03-27T10:04:47.129Z,34.73
2019-03-27T10:07:15.528Z,35.13
2019-03-27T10:09:43.934Z,35.73
2019-03-27T10:12:12.363Z,36.13
2019-03-27T10:14:40.761Z,34.43
2019-03-27T10:17:09.188Z,36.97
2019-03-27T10:19:37.658Z,35.90
2019-03-27T10:22:06.156Z,35.13
2019-03-27T10:24:34.565Z,33.93
2019-03-27T10:27:02.997Z,35.57
2019-03-27T10:29:31.400Z,35.50
2019-03-27T10:32:00.012Z,33.50
2019-03-27T10:34:28.424Z,31.77
2019-03-27T10:36:56.826Z,31.90
2019-03-27T10:39:25.269Z,33.07
2019-03-27T10:41:53.677Z,31.33
2019-03-27T10:44:22.070Z,30.23
2019-03-27T10:46:50.496Z,28.50
2019-03-27T10:49:18.893Z,30.53
2019-03-27T10:51:47.306Z,29.40
2019-03-27T10:54:15.982Z,32.57
2019-03-27T10:56:44.378Z,29.73
2019-03-27T10:59:12.789Z,31.00
2019-03-27T11:01:41.216Z,30.07
2019-03-27T11:04:09.616Z,29.87
2019-03-27T11:06:38.012Z,30.80
2019-03-27T11:09:09.192Z,29.43
2019-03-27T11:11:37.594Z,29.73
2019-03-27T11:14:06.087Z,27.77
2019-03-27T11:16:34.512Z,29.50
2019-03-27T11:19:02.913Z,27.13
2019-03-27T11:21:31.440Z,27.33
2019-03-27T11:23:59.870Z,26.07
2019-03-27T11:26:28.261Z,25.40
2019-03-27T11:28:56.664Z,27.70
2019-03-27T11:31:25.092Z,23.83
2019-03-27T11:33:53.541Z,24.63
2019-03-27T11:36:21.972Z,25.85
2019-03-27T11:38:50.380Z,26.63
2019-03-27T11:41:18.788Z,27.47
2019-03-27T11:43:54.614Z,25.43
2019-03-27T11:46:18.302Z,24.53
2019-03-27T11:48:46.724Z,25.00
2019-03-27T11:51:15.157Z,25.40
2019-03-27T11:53:43.645Z,24.03
2019-03-27T11:56:12.880Z,22.77
2019-03-27T11:58:41.288Z,22.87
2019-03-27T12:01:09.735Z,22.73
2019-03-27T12:03:38.137Z,22.43
2019-03-27T12:06:06.557Z,23.03
2019-03-27T12:08:34.992Z,20.07
2019-03-27T12:11:03.394Z,20.83
2019-03-27T12:13:31.796Z,21.47
2019-03-27T12:16:00.228Z,21.47
2019-03-27T12:18:31.719Z,22.20
2019-03-27T12:20:59.786Z,21.27
2019-03-27T12:23:28.366Z,22.03
2019-03-27T12:25:56.761Z,22.63
2019-03-27T12:28:25.182Z,26.77
2019-03-27T12:30:53.685Z,27.03
2019-03-27T12:33:22.088Z,27.53
2019-03-27T12:35:50.499Z,29.67
2019-03-27T12:38:18.928Z,26.97
2019-03-27T12:40:47.334Z,27.63
2019-03-27T12:43:15.918Z,29.30
2019-03-27T12:45:44.364Z,27.20
2019-03-27T12:48:12.760Z,26.10
2019-03-27T12:50:44.206Z,28.27
2019-03-27T12:53:12.067Z,27.67
2019-03-27T12:55:40.456Z,26.27
2019-03-27T12:58:11.636Z,24.67
2019-03-27T13:00:39.392Z,23.37
2019-03-27T13:03:08.137Z,21.80
2019-03-27T13:05:36.681Z,23.37
2019-03-27T13:08:05.110Z,24.93
2019-03-27T13:10:33.516Z,23.97
2019-03-27T13:13:01.988Z,25.70
2019-03-27T13:15:30.417Z,26.87
2019-03-27T13:17:58.824Z,25.97
2019-03-27T13:20:27.230Z,25.20
2019-03-27T13:22:55.665Z,21.33
2019-03-27T13:25:24.079Z,21.00
2019-03-27T13:27:52.481Z,20.63
2019-03-27T13:30:21.256Z,21.23
2019-03-27T13:32:49.665Z,20.50
2019-03-27T13:35:18.063Z,19.77
2019-03-27T13:37:46.500Z,19.87
2019-03-27T13:40:15.240Z,19.57
2019-03-27T13:42:43.641Z,19.33
2019-03-27T13:45:12.506Z,18.80
2019-03-27T13:47:40.908Z,17.93
2019-03-27T13:50:13.194Z,19.97
2019-03-27T13:52:42.321Z,21.43
2019-03-27T13:55:10.968Z,19.70
2019-03-27T13:57:39.365Z,19.20
2019-03-27T14:00:10.716Z,19.60
2019-03-27T14:02:39.164Z,20.43
2019-03-27T14:05:07.994Z,19.50
2019-03-27T14:07:36.641Z,19.03
2019-03-27T14:10:07.608Z,18.80
2019-03-27T14:12:36.272Z,17.67
2019-03-27T14:15:09.252Z,17.40
2019-03-27T14:17:38.093Z,16.73
2019-03-27T14:20:08.328Z,16.70
2019-03-27T14:22:36.863Z,16.43
2019-03-27T14:25:07.980Z,16.33
2019-03-27T14:27:36.553Z,14.53
2019-03-27T14:30:08.241Z,16.20
2019-03-27T14:32:36.639Z,16.50
2019-03-27T14:35:05.290Z,16.23
2019-03-27T14:37:33.819Z,16.60
2019-03-27T14:40:02.222Z,16.20
2019-03-27T14:42:30.636Z,17.33
2019-03-27T14:44:59.158Z,17.73
2019-03-27T14:47:27.557Z,16.73
2019-03-27T14:49:55.968Z,15.90
2019-03-27T14:52:24.388Z,16.50
2019-03-27T14:54:52.833Z,14.67
2019-03-27T14:57:21.307Z,14.43
2019-03-27T14:59:49.741Z,14.37
2019-03-27T15:02:18.136Z,13.87
2019-03-27T15:04:46.541Z,13.90
2019-03-27T15:07:14.969Z,14.63
2019-03-27T15:09:43.369Z,15.97
2019-03-27T15:12:11.782Z,15.90
2019-03-27T15:14:40.377Z,15.30
2019-03-27T15:17:08.773Z,16.13
2019-03-27T15:19:37.229Z,15.47
2019-03-27T15:22:05.644Z,16.57
2019-03-27T15:24:34.046Z,16.90
2019-03-27T15:27:02.453Z,16.83
2019-03-27T15:29:30.957Z,18.90
2019-03-27T15:31:59.425Z,17.60
2019-03-27T15:34:27.825Z,18.30
2019-03-27T15:36:56.270Z,17.37
2019-03-27T15:39:24.674Z,16.93
2019-03-27T15:41:53.070Z,15.07
2019-03-27T15:44:21.501Z,16.37
2019-03-27T15:46:49.924Z,18.47
2019-03-27T15:49:18.322Z,16.80
2019-03-27T15:51:46.787Z,15.43
2019-03-27T15:54:15.360Z,14.83
2019-03-27T15:56:43.756Z,14.80
2019-03-27T15:59:12.333Z,15.47
2019-03-27T16:01:40.723Z,15.10
2019-03-27T16:04:09.120Z,13.03
2019-03-27T16:06:37.561Z,14.40
2019-03-27T16:09:09.569Z,13.77
2019-03-27T16:11:37.992Z,14.13
2019-03-27T16:14:06.381Z,14.17
2019-03-27T16:16:34.800Z,13.67
2019-03-27T16:19:03.349Z,13.20
2019-03-27T16:21:31.793Z,12.87
2019-03-27T16:24:06.381Z,12.03
2019-03-27T16:26:30.417Z,12.50
2019-03-27T16:28:58.864Z,12.83
2019-03-27T16:31:27.256Z,13.67
2019-03-27T16:33:55.656Z,13.17
2019-03-27T16:36:24.124Z,12.77
2019-03-27T16:38:52.613Z,12.43
2019-03-27T16:41:21.073Z,12.70
2019-03-27T16:43:49.544Z,12.57
2019-03-27T16:46:17.946Z,13.87
2019-03-27T16:48:46.351Z,13.53
2019-03-27T16:51:14.784Z,14.40
2019-03-27T16:53:43.308Z,13.73
2019-03-27T16:56:11.709Z,12.83
2019-03-27T16:58:40.132Z,12.87
2019-03-27T17:01:08.710Z,13.27
2019-03-27T17:03:37.117Z,12.10
2019-03-27T17:06:05.811Z,12.03
2019-03-27T17:08:34.213Z,11.80
2019-03-27T17:11:02.610Z,10.97
2019-03-27T17:13:31.069Z,10.43
2019-03-27T17:15:59.509Z,10.10
2019-03-27T17:18:28.302Z,9.67
2019-03-27T17:20:56.808Z,9.13
2019-03-27T17:23:25.204Z,10.03
2019-03-27T17:25:53.749Z,10.10
2019-03-27T17:28:22.401Z,10.30
2019-03-27T17:30:50.845Z,9.77
2019-03-27T17:33:19.289Z,10.03
2019-03-27T17:35:47.696Z,9.70
2019-03-27T17:38:16.092Z,10.10
2019-03-27T17:40:44.544Z,9.80
2019-03-27T17:43:12.938Z,10.13
2019-03-27T17:45:41.376Z,10.20
2019-03-27T17:48:09.804Z,10.23
2019-03-27T17:50:38.209Z,9.93
2019-03-27T17:53:06.601Z,10.07
2019-03-27T17:55:35.040Z,9.03
2019-03-27T17:58:05.408Z,9.80
2019-03-27T18:00:44.781Z,9.77
2019-03-27T18:03:13.206Z,9.57
2019-03-27T18:05:41.904Z,9.83
2019-03-27T18:08:10.403Z,9.93
2019-03-27T18:10:38.824Z,9.67
2019-03-27T18:13:07.228Z,10.17
2019-03-27T18:15:35.680Z,9.70
2019-03-27T18:18:04.088Z,10.00
2019-03-27T18:20:32.484Z,9.13
2019-03-27T18:23:00.940Z,8.67
2019-03-27T18:25:29.328Z,9.10
2019-03-27T18:27:58.615Z,9.23
2019-03-27T18:30:27.253Z,9.73
2019-03-27T18:32:55.646Z,9.77
2019-03-27T18:35:24.033Z,9.73
2019-03-27T18:37:52.464Z,9.50
2019-03-27T18:40:20.869Z,8.60
2019-03-27T18:42:49.284Z,9.23
2019-03-27T18:45:17.705Z,9.40
2019-03-27T18:47:46.210Z,8.80
2019-03-27T18:50:14.917Z,8.87
2019-03-27T18:52:49.686Z,8.83
2019-03-27T18:55:26.515Z,9.67
2019-03-27T18:57:59.315Z,9.97
2019-03-27T19:00:21.773Z,9.70
2019-03-27T19:02:50.222Z,9.70
2019-03-27T19:05:18.652Z,9.23
2019-03-27T19:07:47.084Z,9.33
2019-03-27T19:10:15.661Z,9.73
2019-03-27T19:12:44.053Z,9.07
2019-03-27T19:15:13.229Z,8.90
2019-03-27T19:17:41.744Z,9.43
2019-03-27T19:20:10.500Z,9.23
2019-03-27T19:22:38.938Z,9.10
2019-03-27T19:25:08.392Z,9.50
2019-03-27T19:27:36.924Z,8.97
2019-03-27T19:30:07.615Z,9.87
2019-03-27T19:32:36.099Z,9.50
2019-03-27T19:35:05.451Z,9.77
2019-03-27T19:37:33.882Z,9.87
2019-03-27T19:40:02.320Z,10.27
2019-03-27T19:42:30.796Z,9.80
2019-03-27T19:44:59.328Z,10.87
2019-03-27T19:47:27.734Z,10.60
2019-03-27T19:49:56.135Z,10.47
2019-03-27T19:52:24.606Z,11.28
2019-03-27T19:54:53.012Z,10.90
2019-03-27T19:57:21.408Z,11.30
2019-03-27T19:59:49.841Z,11.67
2019-03-27T20:02:18.253Z,11.40
2019-03-27T20:04:46.692Z,10.87
2019-03-27T20:07:15.103Z,12.27
2019-03-27T20:09:43.495Z,10.93
2019-03-27T20:12:13.851Z,11.90
2019-03-27T20:14:42.674Z,11.20
2019-03-27T20:17:11.369Z,10.87
2019-03-27T20:19:39.776Z,11.07
2019-03-27T20:22:08.178Z,11.27
2019-03-27T20:24:41.144Z,11.77
2019-03-27T20:27:06.840Z,11.37
2019-03-27T20:29:35.232Z,11.63
2019-03-27T20:32:03.677Z,11.77
2019-03-27T20:34:32.079Z,11.57
2019-03-27T20:37:00.471Z,11.50
2019-03-27T20:39:28.915Z,10.47
2019-03-27T20:41:57.300Z,10.70
2019-03-27T20:44:25.695Z,10.85
2019-03-27T20:46:54.117Z,11.20
2019-03-27T20:49:22.561Z,12.13
2019-03-27T20:51:50.980Z,11.80
2019-03-27T20:54:19.376Z,10.88
2019-03-27T20:56:47.812Z,11.00
2019-03-27T20:59:18.380Z,11.10
2019-03-27T21:01:46.409Z,12.23
2019-03-27T21:04:14.842Z,12.37
2019-03-27T21:06:43.240Z,11.50
2019-03-27T21:09:11.684Z,11.70
2019-03-27T21:11:40.248Z,11.90
2019-03-27T21:14:09.104Z,12.10
2019-03-27T21:16:37.503Z,11.40
2019-03-27T21:19:05.933Z,12.70
2019-03-27T21:21:34.359Z,12.90
2019-03-27T21:24:02.749Z,12.73
2019-03-27T21:26:31.149Z,13.33
2019-03-27T21:28:59.559Z,12.73
2019-03-27T21:31:27.955Z,12.47
2019-03-27T21:33:57.821Z,12.40
2019-03-27T21:36:26.253Z,12.53
2019-03-27T21:38:55.639Z,12.37
2019-03-27T21:41:24.086Z,12.80
2019-03-27T21:43:52.468Z,13.63
2019-03-27T21:46:20.905Z,12.73
2019-03-27T21:48:49.473Z,13.77
2019-03-27T21:51:17.976Z,14.23
2019-03-27T21:53:50.548Z,13.70
2019-03-27T21:56:17.583Z,14.57
2019-03-27T21:58:45.982Z,13.93
2019-03-27T22:01:14.407Z,14.30
2019-03-27T22:03:42.814Z,14.17
2019-03-27T22:06:11.400Z,13.03
2019-03-27T22:08:39.966Z,14.50
2019-03-27T22:11:08.363Z,15.03
2019-03-27T22:13:36.761Z,13.70
2019-03-27T22:16:05.178Z,13.37
2019-03-27T22:18:33.574Z,13.90
2019-03-27T22:21:02.004Z,13.83
2019-03-27T22:23:30.569Z,14.30
2019-03-27T22:26:00.212Z,13.53
2019-03-27T22:28:28.689Z,14.00
2019-03-27T22:30:57.104Z,14.00
2019-03-27T22:33:25.505Z,14.00
2019-03-27T22:35:54.008Z,14.00
2019-03-27T22:38:22.409Z,14.33
2019-03-27T22:40:50.808Z,14.60
2019-03-27T22:43:19.244Z,14.37
2019-03-27T22:45:47.706Z,14.00
2019-03-27T22:48:16.099Z,13.90
2019-03-27T22:50:44.518Z,14.90
2019-03-27T22:53:12.916Z,13.70
2019-03-27T22:55:49.563Z,14.20
2019-03-27T22:58:12.995Z,14.97
2019-03-27T23:00:51.768Z,14.67
2019-03-27T23:03:20.166Z,14.07
2019-03-27T23:05:48.566Z,15.30
2019-03-27T23:08:16.996Z,14.77
2019-03-27T23:10:45.423Z,14.07
2019-03-27T23:13:13.814Z,14.57
2019-03-27T23:15:42.500Z,15.27
2019-03-27T23:18:10.904Z,15.20
2019-03-27T23:20:39.326Z,14.57
2019-03-27T23:23:07.749Z,15.10
2019-03-27T23:25:36.188Z,14.50
2019-03-27T23:28:04.674Z,15.67
2019-03-27T23:30:33.110Z,14.30
2019-03-27T23:33:01.672Z,15.87
2019-03-27T23:35:30.096Z,15.30
2019-03-27T23:37:58.681Z,15.13
2019-03-27T23:40:27.117Z,15.03
2019-03-27T23:42:55.513Z,15.83
2019-03-27T23:45:23.920Z,15.57
2019-03-27T23:47:52.356Z,15.97
2019-03-27T23:50:20.737Z,16.00
2019-03-27T23:52:49.132Z,16.07
2019-03-27T23:55:17.560Z,15.70
2019-03-27T23:57:45.958Z,15.57
